Time,TemperatureF,DewpointF,PressureIn,WindDirection,WindDirectionDegrees,WindSpeedMPH,WindSpeedGustMPH,Humidity,HourlyPrecipIn,Conditions,Clouds,dailyrainin,SoftwareType,DateUTC
2013-08-19 00:01:00,56.0,53.0,-100.00,SSE,150,12.0,16.0,89,-99.99,,,-99.99,,2013-08-19 08:01:00,
2013-08-19 00:11:00,56.0,53.0,-100.00,SSE,150,12.0,16.0,89,-99.99,,,-99.99,,2013-08-19 08:11:00,
2013-08-19 00:21:00,56.0,53.0,-100.00,SSE,150,8.0,13.0,91,-99.99,,,-99.99,,2013-08-19 08:21:00,
2013-08-19 00:32:00,56.0,53.0,-100.00,SSE,150,8.0,13.0,91,-99.99,,,-99.99,,2013-08-19 08:32:00,
2013-08-19 00:42:00,56.0,53.0,-100.00,SSE,150,8.0,13.0,91,-99.99,,,-99.99,,2013-08-19 08:42:00,
2013-08-19 00:51:00,55.0,53.0,-100.00,SSE,160,7.0,11.0,93,-99.99,,,-99.99,,2013-08-19 08:51:00,
2013-08-19 01:01:00,55.0,53.0,-100.00,SSE,160,7.0,11.0,93,-99.99,,,-99.99,,2013-08-19 09:01:00,
2013-08-19 01:11:00,55.0,53.0,-100.00,SSE,160,7.0,11.0,93,-99.99,,,-99.99,,2013-08-19 09:11:00,
2013-08-19 01:21:00,55.0,53.0,-100.00,SSE,155,8.0,9.0,93,-99.99,,,-99.99,,2013-08-19 09:21:00,
2013-08-19 01:33:00,55.0,53.0,-100.00,SSE,155,8.0,9.0,93,-99.99,,,-99.99,,2013-08-19 09:33:00,
2013-08-19 01:43:00,55.0,53.0,-100.00,SSE,155,8.0,9.0,93,-99.99,,,-99.99,,2013-08-19 09:43:00,
2013-08-19 01:53:00,56.0,53.0,-100.00,SSE,160,7.0,11.0,92,-99.99,,,-99.99,,2013-08-19 09:53:00,
2013-08-19 02:03:00,56.0,53.0,-100.00,SSE,160,7.0,11.0,92,-99.99,,,-99.99,,2013-08-19 10:03:00,
2013-08-19 02:12:00,56.0,53.0,-100.00,SSE,160,7.0,11.0,92,-99.99,,,-99.99,,2013-08-19 10:12:00,
2013-08-19 02:22:00,54.0,53.0,-100.00,SSE,165,10.0,11.0,94,-99.99,,,-99.99,,2013-08-19 10:22:00,
2013-08-19 02:33:00,54.0,53.0,-100.00,SSE,165,10.0,11.0,94,-99.99,,,-99.99,,2013-08-19 10:33:00,
2013-08-19 02:42:00,54.0,53.0,-100.00,SSE,165,10.0,11.0,94,-99.99,,,-99.99,,2013-08-19 10:42:00,
2013-08-19 02:52:00,54.0,53.0,-100.00,SSE,165,9.0,12.0,93,-99.99,,,-99.99,,2013-08-19 10:52:00,
2013-08-19 03:02:00,54.0,53.0,-100.00,SSE,165,9.0,12.0,93,-99.99,,,-99.99,,2013-08-19 11:02:00,
2013-08-19 03:12:00,54.0,53.0,-100.00,SSE,165,9.0,12.0,93,-99.99,,,-99.99,,2013-08-19 11:12:00,
2013-08-19 03:21:00,55.0,53.0,-100.00,SSE,165,11.0,13.0,93,-99.99,,,-99.99,,2013-08-19 11:21:00,
2013-08-19 03:33:00,55.0,53.0,-100.00,SSE,165,11.0,13.0,93,-99.99,,,-99.99,,2013-08-19 11:33:00,
2013-08-19 03:45:00,55.0,53.0,-100.00,SSE,165,11.0,13.0,93,-99.99,,,-99.99,,2013-08-19 11:45:00,
2013-08-19 03:52:00,55.0,53.0,-100.00,SSE,150,9.0,12.0,91,-99.99,,,-99.99,,2013-08-19 11:52:00,
2013-08-19 04:01:00,55.0,53.0,-100.00,SSE,150,9.0,12.0,91,-99.99,,,-99.99,,2013-08-19 12:01:00,
2013-08-19 04:11:00,55.0,53.0,-100.00,SSE,150,9.0,12.0,91,-99.99,,,-99.99,,2013-08-19 12:11:00,
2013-08-19 04:21:00,54.0,53.0,-100.00,ENE,70,2.0,6.0,92,-99.99,,,-99.99,,2013-08-19 12:21:00,
2013-08-19 04:32:00,54.0,53.0,-100.00,ENE,70,2.0,6.0,92,-99.99,,,-99.99,,2013-08-19 12:32:00,
2013-08-19 04:42:00,54.0,53.0,-100.00,ENE,70,2.0,6.0,92,-99.99,,,-99.99,,2013-08-19 12:42:00,
2013-08-19 04:52:00,52.0,51.0,-100.00,North,5,2.0,3.0,95,-99.99,,,-99.99,,2013-08-19 12:52:00,
2013-08-19 05:03:00,52.0,51.0,-100.00,North,5,2.0,3.0,95,-99.99,,,-99.99,,2013-08-19 13:03:00,
2013-08-19 05:13:00,52.0,51.0,-100.00,North,5,2.0,3.0,95,-99.99,,,-99.99,,2013-08-19 13:13:00,
2013-08-19 05:22:00,51.0,50.0,-100.00,SSE,160,1.0,2.0,97,-99.99,,,-99.99,,2013-08-19 13:22:00,
2013-08-19 05:32:00,51.0,50.0,-100.00,SSE,160,1.0,2.0,97,-99.99,,,-99.99,,2013-08-19 13:32:00,
2013-08-19 05:42:00,51.0,50.0,-100.00,SSE,160,1.0,2.0,97,-99.99,,,-99.99,,2013-08-19 13:42:00,
2013-08-19 05:52:00,52.0,51.0,-100.00,NW,310,1.0,2.0,97,-99.99,,,-99.99,,2013-08-19 13:52:00,
2013-08-19 06:02:00,52.0,51.0,-100.00,NW,310,1.0,2.0,97,-99.99,,,-99.99,,2013-08-19 14:02:00,
2013-08-19 06:11:00,52.0,51.0,-100.00,NW,310,1.0,2.0,97,-99.99,,,-99.99,,2013-08-19 14:11:00,
2013-08-19 06:21:00,51.0,50.0,-100.00,SSE,165,3.0,3.0,97,-99.99,,,-99.99,,2013-08-19 14:21:00,
2013-08-19 06:32:00,51.0,50.0,-100.00,SSE,165,3.0,3.0,97,-99.99,,,-99.99,,2013-08-19 14:32:00,
2013-08-19 06:42:00,51.0,50.0,-100.00,SSE,165,3.0,3.0,97,-99.99,,,-99.99,,2013-08-19 14:42:00,
2013-08-19 06:52:00,51.0,50.0,-100.00,SE,145,1.0,3.0,97,-99.99,,,-99.99,,2013-08-19 14:52:00,
2013-08-19 07:01:00,51.0,50.0,-100.00,SE,145,1.0,3.0,97,-99.99,,,-99.99,,2013-08-19 15:01:00,
2013-08-19 07:11:00,51.0,50.0,-100.00,SE,145,1.0,3.0,97,-99.99,,,-99.99,,2013-08-19 15:11:00,
2013-08-19 07:22:00,51.0,50.0,-100.00,SSE,150,7.0,9.0,97,-99.99,,,-99.99,,2013-08-19 15:22:00,
2013-08-19 07:34:00,51.0,50.0,-100.00,SSE,150,7.0,9.0,97,-99.99,,,-99.99,,2013-08-19 15:34:00,
2013-08-19 07:44:00,51.0,50.0,-100.00,SSE,150,7.0,9.0,97,-99.99,,,-99.99,,2013-08-19 15:44:00,
2013-08-19 07:54:00,52.0,52.0,-100.00,SSE,150,12.0,15.0,97,-99.99,,,-99.99,,2013-08-19 15:54:00,
2013-08-19 08:05:00,52.0,52.0,-100.00,SSE,150,12.0,15.0,97,-99.99,,,-99.99,,2013-08-19 16:05:00,
2013-08-19 08:13:00,52.0,52.0,-100.00,SSE,150,12.0,15.0,97,-99.99,,,-99.99,,2013-08-19 16:13:00,
2013-08-19 08:23:00,52.0,52.0,-100.00,SSE,165,9.0,11.0,97,-99.99,,,-99.99,,2013-08-19 16:23:00,
2013-08-19 08:33:00,52.0,52.0,-100.00,SSE,165,9.0,11.0,97,-99.99,,,-99.99,,2013-08-19 16:33:00,
2013-08-19 08:47:00,52.0,52.0,-100.00,SSE,165,9.0,11.0,97,-99.99,,,-99.99,,2013-08-19 16:47:00,
2013-08-19 09:03:00,53.0,53.0,-100.00,SSE,160,8.0,12.0,97,-99.99,,,-99.99,,2013-08-19 17:03:00,
2013-08-19 09:12:00,53.0,53.0,-100.00,SSE,160,8.0,12.0,97,-99.99,,,-99.99,,2013-08-19 17:12:00,
2013-08-19 09:30:00,54.0,-99.9,-100.00,SSE,160,7.0,11.0,97,-99.99,,,-99.99,,2013-08-19 17:30:00,
2013-08-19 09:38:00,54.0,53.0,-100.00,SSE,160,7.0,11.0,97,-99.99,,,-99.99,,2013-08-19 17:38:00,
2013-08-19 09:49:00,54.0,53.0,-100.00,SSE,160,7.0,11.0,97,-99.99,,,-99.99,,2013-08-19 17:49:00,
2013-08-19 09:50:00,-999.0,-99.9,-100.00,SSE,155,6.0,9.0,97,-99.99,,,-99.99,,2013-08-19 17:50:00,
2013-08-19 09:57:00,54.0,54.0,-100.00,SSE,155,9.0,11.0,97,-99.99,,,-99.99,,2013-08-19 17:57:00,
2013-08-19 10:05:00,54.0,54.0,-100.00,SSE,155,9.0,11.0,97,-99.99,,,-99.99,,2013-08-19 18:05:00,
2013-08-19 10:19:00,54.0,54.0,-100.00,SSE,155,9.0,11.0,97,-99.99,,,-99.99,,2013-08-19 18:19:00,
2013-08-19 10:28:00,55.0,55.0,-100.00,SSE,155,6.0,9.0,97,-99.99,,,-99.99,,2013-08-19 18:28:00,
2013-08-19 10:38:00,55.0,55.0,-100.00,SSE,155,6.0,9.0,97,-99.99,,,-99.99,,2013-08-19 18:38:00,
2013-08-19 10:50:00,62.0,55.0,-100.00,SSE,155,4.0,6.0,77,-99.99,,,-99.99,,2013-08-19 18:50:00,
2013-08-19 11:00:00,-999.0,-99.9,-100.00,SSE,160,5.0,9.0,94,-99.99,,,-99.99,,2013-08-19 19:00:00,
2013-08-19 11:07:00,59.0,58.0,-100.00,SSE,160,5.0,9.0,94,-99.99,,,-99.99,,2013-08-19 19:07:00,
2013-08-19 11:16:00,59.0,58.0,-100.00,SSE,160,5.0,9.0,94,-99.99,,,-99.99,,2013-08-19 19:16:00,
2013-08-19 11:20:00,55.0,54.0,-100.00,SSE,155,15.0,19.0,96,-99.99,,,-99.99,,2013-08-19 19:20:00,
2013-08-19 11:30:00,-999.0,-99.9,-100.00,SSE,155,4.0,6.0,77,-99.99,,,-99.99,,2013-08-19 19:30:00,
2013-08-19 11:50:00,55.0,54.0,-100.00,SSE,160,13.0,14.0,97,-99.99,,,-99.99,,2013-08-19 19:50:00,
2013-08-19 11:59:00,55.0,54.0,-100.00,SSE,155,15.0,19.0,96,-99.99,,,-99.99,,2013-08-19 19:59:00,
2013-08-19 12:08:00,55.0,54.0,-100.00,SSE,155,15.0,19.0,96,-99.99,,,-99.99,,2013-08-19 20:08:00,
2013-08-19 12:30:00,55.0,54.0,-100.00,SSE,160,13.0,14.0,97,-99.99,,,-99.99,,2013-08-19 20:30:00,
2013-08-19 12:39:00,55.0,54.0,-100.00,SSE,160,13.0,14.0,97,-99.99,,,-99.99,,2013-08-19 20:39:00,
2013-08-19 13:00:00,-999.0,-99.9,-100.00,SSE,155,12.0,16.0,-999,-99.99,,,-99.99,,2013-08-19 21:00:00,
2013-08-19 13:08:00,56.0,55.0,-100.00,SSE,155,12.0,16.0,97,-99.99,,,-99.99,,2013-08-19 21:08:00,
2013-08-19 13:16:00,56.0,55.0,-100.00,SSE,155,12.0,16.0,97,-99.99,,,-99.99,,2013-08-19 21:16:00,
2013-08-19 13:25:00,57.0,56.0,-100.00,SSE,155,12.0,14.0,96,-99.99,,,-99.99,,2013-08-19 21:25:00,
2013-08-19 13:38:00,57.0,56.0,-100.00,SSE,155,12.0,14.0,96,-99.99,,,-99.99,,2013-08-19 21:38:00,
2013-08-19 13:45:00,57.0,56.0,-100.00,SSE,155,12.0,14.0,96,-99.99,,,-99.99,,2013-08-19 21:45:00,
2013-08-19 13:54:00,58.0,56.0,-100.00,SSE,160,10.0,12.0,94,-99.99,,,-99.99,,2013-08-19 21:54:00,
2013-08-19 14:06:00,58.0,56.0,-100.00,SSE,160,10.0,12.0,94,-99.99,,,-99.99,,2013-08-19 22:06:00,
2013-08-19 14:25:00,57.0,56.0,-100.00,SSE,155,12.0,15.0,93,-99.99,,,-99.99,,2013-08-19 22:25:00,
2013-08-19 14:35:00,57.0,56.0,-100.00,SSE,155,12.0,15.0,93,-99.99,,,-99.99,,2013-08-19 22:35:00,
2013-08-19 14:44:00,57.0,56.0,-100.00,SSE,155,12.0,15.0,93,-99.99,,,-99.99,,2013-08-19 22:44:00,
2013-08-19 14:54:00,58.0,57.0,-100.00,West,270,1.0,10.0,93,-99.99,,,-99.99,,2013-08-19 22:54:00,
2013-08-19 15:05:00,58.0,57.0,-100.00,West,270,1.0,10.0,93,-99.99,,,-99.99,,2013-08-19 23:05:00,
2013-08-19 15:15:00,58.0,57.0,-100.00,West,270,1.0,10.0,93,-99.99,,,-99.99,,2013-08-19 23:15:00,
2013-08-19 15:25:00,59.0,55.0,-100.00,NW,325,6.0,9.0,87,-99.99,,,-99.99,,2013-08-19 23:25:00,
2013-08-19 15:36:00,59.0,55.0,-100.00,NW,325,6.0,9.0,87,-99.99,,,-99.99,,2013-08-19 23:36:00,
2013-08-19 15:48:00,59.0,55.0,-100.00,NW,325,6.0,9.0,87,-99.99,,,-99.99,,2013-08-19 23:48:00,
2013-08-19 15:55:00,57.0,54.0,-100.00,NW,320,9.0,9.0,91,-99.99,,,-99.99,,2013-08-19 23:55:00,
2013-08-19 16:02:00,57.0,54.0,-100.00,NW,320,9.0,9.0,91,-99.99,,,-99.99,,2013-08-20 00:02:00,
2013-08-19 16:11:00,57.0,54.0,-100.00,NW,320,9.0,9.0,91,-99.99,,,-99.99,,2013-08-20 00:11:00,
2013-08-19 16:23:00,56.0,54.0,-100.00,NNW,330,7.0,11.0,93,-99.99,,,-99.99,,2013-08-20 00:23:00,
2013-08-19 16:32:00,56.0,54.0,-100.00,NNW,330,7.0,11.0,93,-99.99,,,-99.99,,2013-08-20 00:32:00,
2013-08-19 16:42:00,56.0,54.0,-100.00,NNW,330,7.0,11.0,93,-99.99,,,-99.99,,2013-08-20 00:42:00,
2013-08-19 16:52:00,56.0,54.0,-100.00,NW,325,6.0,7.0,94,-99.99,,,-99.99,,2013-08-20 00:52:00,
2013-08-19 17:03:00,56.0,54.0,-100.00,NW,325,6.0,7.0,94,-99.99,,,-99.99,,2013-08-20 01:03:00,
2013-08-19 17:11:00,56.0,54.0,-100.00,NW,325,6.0,7.0,94,-99.99,,,-99.99,,2013-08-20 01:11:00,
2013-08-19 17:22:00,54.0,53.0,-100.00,NW,320,4.0,7.0,96,-99.99,,,-99.99,,2013-08-20 01:22:00,
2013-08-19 17:32:00,54.0,53.0,-100.00,NW,320,4.0,7.0,96,-99.99,,,-99.99,,2013-08-20 01:32:00,
2013-08-19 17:42:00,54.0,53.0,-100.00,NW,320,4.0,7.0,96,-99.99,,,-99.99,,2013-08-20 01:42:00,
2013-08-19 17:52:00,54.0,53.0,-100.00,NNW,330,4.0,11.0,97,-99.99,,,-99.99,,2013-08-20 01:52:00,
2013-08-19 18:02:00,54.0,53.0,-100.00,NNW,330,4.0,11.0,97,-99.99,,,-99.99,,2013-08-20 02:02:00,
2013-08-19 18:11:00,54.0,53.0,-100.00,NNW,330,4.0,11.0,97,-99.99,,,-99.99,,2013-08-20 02:11:00,
2013-08-19 18:21:00,54.0,53.0,-100.00,NNW,340,4.0,7.0,97,-99.99,,,-99.99,,2013-08-20 02:21:00,
2013-08-19 18:32:00,54.0,53.0,-100.00,NNW,340,4.0,7.0,97,-99.99,,,-99.99,,2013-08-20 02:32:00,
2013-08-19 18:42:00,54.0,53.0,-100.00,NNW,340,4.0,7.0,97,-99.99,,,-99.99,,2013-08-20 02:42:00,
2013-08-19 18:52:00,54.0,54.0,-100.00,NNW,335,3.0,4.0,97,-99.99,,,-99.99,,2013-08-20 02:52:00,
2013-08-19 19:02:00,54.0,54.0,-100.00,NNW,335,3.0,4.0,97,-99.99,,,-99.99,,2013-08-20 03:02:00,
2013-08-19 19:11:00,54.0,54.0,-100.00,NNW,335,3.0,4.0,97,-99.99,,,-99.99,,2013-08-20 03:11:00,
2013-08-19 19:22:00,54.0,53.0,-100.00,NNW,330,5.0,6.0,97,-99.99,,,-99.99,,2013-08-20 03:22:00,
2013-08-19 19:33:00,54.0,53.0,-100.00,NNW,330,5.0,6.0,97,-99.99,,,-99.99,,2013-08-20 03:33:00,
2013-08-19 19:43:00,54.0,53.0,-100.00,NNW,330,5.0,6.0,97,-99.99,,,-99.99,,2013-08-20 03:43:00,
2013-08-19 19:54:00,53.0,53.0,-100.00,NNW,330,3.0,7.0,97,-99.99,,,-99.99,,2013-08-20 03:54:00,
2013-08-19 20:03:00,53.0,53.0,-100.00,NNW,330,3.0,7.0,97,-99.99,,,-99.99,,2013-08-20 04:03:00,
2013-08-19 20:13:00,53.0,53.0,-100.00,NNW,330,3.0,7.0,97,-99.99,,,-99.99,,2013-08-20 04:13:00,
2013-08-19 20:23:00,53.0,52.0,-100.00,NW,320,1.0,5.0,97,-99.99,,,-99.99,,2013-08-20 04:23:00,
2013-08-19 20:33:00,53.0,52.0,-100.00,NW,320,1.0,5.0,97,-99.99,,,-99.99,,2013-08-20 04:33:00,
2013-08-19 20:42:00,53.0,52.0,-100.00,NW,320,1.0,5.0,97,-99.99,,,-99.99,,2013-08-20 04:42:00,
2013-08-19 20:53:00,53.0,52.0,-100.00,North,5,2.0,4.0,97,-99.99,,,-99.99,,2013-08-20 04:53:00,
2013-08-19 21:02:00,53.0,52.0,-100.00,North,5,2.0,4.0,97,-99.99,,,-99.99,,2013-08-20 05:02:00,
2013-08-19 21:12:00,53.0,52.0,-100.00,North,5,2.0,4.0,97,-99.99,,,-99.99,,2013-08-20 05:12:00,
2013-08-19 21:22:00,52.0,51.0,-100.00,NW,325,6.0,8.0,97,-99.99,,,-99.99,,2013-08-20 05:22:00,
2013-08-19 21:32:00,52.0,51.0,-100.00,NW,325,6.0,8.0,97,-99.99,,,-99.99,,2013-08-20 05:32:00,
2013-08-19 21:42:00,52.0,51.0,-100.00,NW,325,6.0,8.0,97,-99.99,,,-99.99,,2013-08-20 05:42:00,
2013-08-19 21:52:00,51.0,51.0,-100.00,NW,325,4.0,8.0,97,-99.99,,,-99.99,,2013-08-20 05:52:00,
2013-08-19 22:01:00,51.0,51.0,-100.00,NW,325,4.0,8.0,97,-99.99,,,-99.99,,2013-08-20 06:01:00,
2013-08-19 22:11:00,51.0,51.0,-100.00,NW,325,4.0,8.0,97,-99.99,,,-99.99,,2013-08-20 06:11:00,
2013-08-19 22:21:00,51.0,50.0,-100.00,NW,325,4.0,6.0,97,-99.99,,,-99.99,,2013-08-20 06:21:00,
2013-08-19 22:31:00,51.0,50.0,-100.00,NW,325,4.0,6.0,97,-99.99,,,-99.99,,2013-08-20 06:31:00,
2013-08-19 22:42:00,51.0,50.0,-100.00,NW,325,4.0,6.0,97,-99.99,,,-99.99,,2013-08-20 06:42:00,
2013-08-19 22:51:00,51.0,50.0,-100.00,NNW,345,2.0,4.0,97,-99.99,,,-99.99,,2013-08-20 06:51:00,
2013-08-19 23:01:00,51.0,50.0,-100.00,NNW,345,2.0,4.0,97,-99.99,,,-99.99,,2013-08-20 07:01:00,
2013-08-19 23:11:00,51.0,50.0,-100.00,NNW,345,2.0,4.0,97,-99.99,,,-99.99,,2013-08-20 07:11:00,
2013-08-19 23:21:00,51.0,50.0,-100.00,North,355,3.0,4.0,97,-99.99,,,-99.99,,2013-08-20 07:21:00,
2013-08-19 23:32:00,51.0,50.0,-100.00,North,355,3.0,4.0,97,-99.99,,,-99.99,,2013-08-20 07:32:00,
2013-08-19 23:41:00,51.0,50.0,-100.00,North,355,3.0,4.0,97,-99.99,,,-99.99,,2013-08-20 07:41:00,
2013-08-19 23:52:00,51.0,50.0,-100.00,NW,310,1.0,2.0,97,-99.99,,,-99.99,,2013-08-20 07:52:00,